Time;durP1;ratioP1;P1;durP2;ratioP2;P2;SDS_P1;SDS_P2;PMS_P1;PMS_P2;Temp;Humidity;BMP_temperature;BMP_pressure;BME280_temperature;BME280_humidity;BME280_pressure;Samples;Min_cycle;Max_cycle;Signal;HPM_P1;HPM_P2
2022/10/03 00:00:03;;;;;;;0.77;0.43;;;;;;;;;;10410539;28;20206;-78
2022/10/03 00:05:23;;;;;;;6.97;0.45;;;;;;;;;;10409801;28;20616;-78
2022/10/03 00:10:31;;;;;;;6.22;0.65;;;;;;;;;;10412224;28;20695;-78
2022/10/03 00:15:46;;;;;;;3.25;0.63;;;;;;;;;;10409738;28;20345;-78
2022/10/03 00:21:00;;;;;;;0.22;0.22;;;;;;;;;;10407085;28;20220;-78
2022/10/03 00:26:29;;;;;;;1.10;0.60;;;;;;;;;;10403893;28;20637;-79
2022/10/03 00:31:50;;;;;;;4.30;0.77;;;;;;;;;;10392863;28;20218;-78
2022/10/03 00:37:10;;;;;;;9.07;0.88;;;;;;;;;;10408473;28;20226;-78
2022/10/03 00:42:12;;;;;;;1.83;0.40;;;;;;;;;;10412655;28;20968;-77
2022/10/03 00:47:39;;;;;;;2.05;0.30;;;;;;;;;;10409140;28;20230;-78
2022/10/03 00:52:40;;;;;;;0.52;0.50;;;;;;;;;;10409700;28;20215;-80
2022/10/03 00:57:57;;;;;;;2.50;0.55;;;;;;;;;;10421121;28;20238;-79
2022/10/03 01:03:17;;;;;;;2.55;0.50;;;;;;;;;;10399902;28;20229;-78
2022/10/03 01:08:21;;;;;;;5.30;0.80;;;;;;;;;;10405777;28;20215;-77
2022/10/03 01:13:31;;;;;;;4.25;0.70;;;;;;;;;;10380964;28;20240;-79
2022/10/03 01:18:36;;;;;;;3.22;0.60;;;;;;;;;;10365388;28;20226;-79
2022/10/03 01:23:56;;;;;;;3.22;0.80;;;;;;;;;;10362257;28;20216;-78
2022/10/03 01:34:51;;;;;;;8.05;1.15;;;;;;;;;;10384336;28;20223;-78
2022/10/03 01:40:15;;;;;;;4.93;0.95;;;;;;;;;;10368657;28;20250;-79
2022/10/03 01:45:26;;;;;;;3.50;0.43;;;;;;;;;;10362788;28;20242;-78
2022/10/03 01:50:35;;;;;;;3.15;0.80;;;;;;;;;;10363107;28;20294;-79
2022/10/03 01:55:58;;;;;;;0.85;0.55;;;;;;;;;;10363305;28;20234;-80
2022/10/03 02:01:11;;;;;;;2.22;0.73;;;;;;;;;;10364208;28;20273;-80
2022/10/03 02:06:21;;;;;;;4.47;0.50;;;;;;;;;;10378040;28;20317;-78
2022/10/03 02:11:28;;;;;;;1.45;0.60;;;;;;;;;;10394152;28;20678;-79
2022/10/03 02:16:35;;;;;;;5.88;0.82;;;;;;;;;;10399189;28;20871;-78
2022/10/03 02:21:46;;;;;;;5.05;0.57;;;;;;;;;;10398430;28;20688;-78
2022/10/03 02:26:47;;;;;;;6.20;0.50;;;;;;;;;;10394231;28;20226;-78
2022/10/03 02:32:15;;;;;;;1.30;0.55;;;;;;;;;;10386870;28;20229;-79
2022/10/03 02:37:34;;;;;;;6.30;0.52;;;;;;;;;;10403044;28;20718;-79
2022/10/03 02:42:49;;;;;;;4.78;0.63;;;;;;;;;;10406144;28;21740;-78
2022/10/03 02:48:02;;;;;;;4.32;0.70;;;;;;;;;;10382644;28;20266;-79
2022/10/03 02:53:22;;;;;;;8.57;1.08;;;;;;;;;;10371505;28;20218;-78
2022/10/03 02:58:42;;;;;;;3.50;0.90;;;;;;;;;;10399844;28;20339;-78
2022/10/03 03:03:55;;;;;;;6.90;1.13;;;;;;;;;;10405557;28;20210;-78
2022/10/03 03:08:57;;;;;;;3.97;1.08;;;;;;;;;;10406757;28;20229;-79
2022/10/03 03:13:58;;;;;;;10.82;1.05;;;;;;;;;;10417408;28;20222;-78
2022/10/03 03:19:12;;;;;;;2.70;0.95;;;;;;;;;;10400797;28;20207;-79
2022/10/03 03:24:22;;;;;;;2.30;0.88;;;;;;;;;;10404743;28;20229;-78
2022/10/03 03:29:33;;;;;;;5.68;1.17;;;;;;;;;;10411472;28;20252;-78
2022/10/03 03:34:51;;;;;;;2.63;0.93;;;;;;;;;;10369235;28;20223;-79
2022/10/03 03:40:06;;;;;;;10.93;1.23;;;;;;;;;;10411108;28;20215;-78
2022/10/03 03:45:17;;;;;;;1.38;0.68;;;;;;;;;;10409324;28;20221;-79
2022/10/03 03:50:21;;;;;;;3.50;0.80;;;;;;;;;;10411389;28;20575;-78
2022/10/03 03:55:40;;;;;;;2.78;0.88;;;;;;;;;;10413153;28;21251;-79
2022/10/03 04:00:54;;;;;;;1.85;0.50;;;;;;;;;;10412926;28;20210;-79
2022/10/03 04:06:13;;;;;;;2.88;0.55;;;;;;;;;;10393673;28;20210;-78
2022/10/03 04:11:20;;;;;;;2.58;0.65;;;;;;;;;;10412078;28;20222;-79
2022/10/03 04:18:56;;;;;;;11.35;0.88;;;;;;;;;;10411579;28;20223;-78
2022/10/03 04:21:54;;;;;;;5.85;0.85;;;;;;;;;;10409842;28;20211;-78
2022/10/03 04:27:14;;;;;;;8.68;1.48;;;;;;;;;;10410776;28;21200;-77
2022/10/03 04:32:28;;;;;;;1.33;0.60;;;;;;;;;;10409225;28;20250;-78
2022/10/03 04:37:41;;;;;;;7.47;1.15;;;;;;;;;;10406351;28;20230;-78
2022/10/03 04:43:01;;;;;;;8.40;0.68;;;;;;;;;;10414720;28;20223;-79
2022/10/03 04:48:09;;;;;;;6.00;0.70;;;;;;;;;;10413610;28;20355;-79
2022/10/03 04:53:10;;;;;;;5.28;0.40;;;;;;;;;;10411897;28;21273;-79
2022/10/03 04:58:19;;;;;;;2.17;0.85;;;;;;;;;;10395170;28;20638;-78
2022/10/03 05:03:21;;;;;;;2.45;0.65;;;;;;;;;;10413513;28;20306;-79
2022/10/03 05:08:22;;;;;;;7.38;1.15;;;;;;;;;;10393791;28;20219;-78
2022/10/03 05:13:31;;;;;;;2.30;1.50;;;;;;;;;;10378892;28;20223;-79
2022/10/03 05:18:38;;;;;;;5.45;0.95;;;;;;;;;;10367869;28;20215;-78
2022/10/03 05:23:42;;;;;;;6.28;1.27;;;;;;;;;;10365870;28;20277;-78
2022/10/03 05:29:09;;;;;;;7.97;1.13;;;;;;;;;;10364050;28;20885;-79
2022/10/03 05:34:40;;;;;;;4.65;0.90;;;;;;;;;;10391860;28;20222;-77
2022/10/03 05:39:44;;;;;;;1.67;0.63;;;;;;;;;;10349407;28;20223;-77
2022/10/03 05:44:53;;;;;;;7.00;0.98;;;;;;;;;;10404757;28;20207;-78
2022/10/03 05:49:54;;;;;;;3.95;1.40;;;;;;;;;;10404731;28;21832;-78
2022/10/03 05:55:11;;;;;;;3.88;0.90;;;;;;;;;;10360519;28;20218;-78
2022/10/03 06:00:22;;;;;;;15.55;2.42;;;;;;;;;;10388955;28;20213;-80
2022/10/03 06:05:24;;;;;;;4.22;1.30;;;;;;;;;;10384120;28;20611;-77
2022/10/03 06:10:44;;;;;;;1.30;1.20;;;;;;;;;;10405409;28;20235;-78
2022/10/03 06:15:58;;;;;;;2.35;1.25;;;;;;;;;;10516960;27;20295;-68
2022/10/03 06:21:13;;;;;;;2.53;0.85;;;;;;;;;;10446984;28;20215;-69
2022/10/03 06:26:20;;;;;;;4.28;1.05;;;;;;;;;;10430727;28;20269;-65
2022/10/03 06:31:27;;;;;;;5.95;1.15;;;;;;;;;;10408961;28;20215;-68
2022/10/03 06:36:43;;;;;;;9.55;1.67;;;;;;;;;;10412616;28;20250;-68
2022/10/03 06:42:07;;;;;;;10.65;0.90;;;;;;;;;;10427408;28;20218;-66
2022/10/03 06:47:50;;;;;;;7.95;1.13;;;;;;;;;;10445722;28;20261;-65
2022/10/03 06:52:57;;;;;;;3.63;1.10;;;;;;;;;;10310511;28;20727;-66
2022/10/03 06:57:58;;;;;;;5.15;0.77;;;;;;;;;;10398296;28;20781;-66
2022/10/03 07:03:14;;;;;;;7.00;1.63;;;;;;;;;;10405096;28;20661;-66
2022/10/03 07:08:31;;;;;;;3.67;1.33;;;;;;;;;;10409672;28;20225;-66
2022/10/03 07:13:38;;;;;;;2.15;1.05;;;;;;;;;;10428375;28;20279;-66
2022/10/03 07:18:57;;;;;;;3.60;0.82;;;;;;;;;;10448937;28;20303;-66
2022/10/03 07:24:06;;;;;;;2.92;1.13;;;;;;;;;;10438322;28;20219;-66
2022/10/03 07:29:26;;;;;;;2.85;0.80;;;;;;;;;;10417270;28;20241;-66
2022/10/03 07:34:38;;;;;;;4.22;0.77;;;;;;;;;;10400578;28;20223;-66
2022/10/03 07:39:42;;;;;;;5.78;1.52;;;;;;;;;;10419881;28;20300;-67
2022/10/03 07:44:55;;;;;;;1.80;1.02;;;;;;;;;;10416787;28;20318;-67
2022/10/03 07:50:05;;;;;;;5.20;1.02;;;;;;;;;;10422625;28;20401;-66
2022/10/03 07:55:25;;;;;;;2.03;0.77;;;;;;;;;;10416010;28;20227;-66
2022/10/03 08:00:31;;;;;;;15.13;1.45;;;;;;;;;;10418472;28;20250;-64
2022/10/03 08:05:38;;;;;;;5.63;0.77;;;;;;;;;;10417541;28;20206;-64
2022/10/03 08:10:48;;;;;;;4.53;1.20;;;;;;;;;;10418434;28;20269;-65
2022/10/03 08:16:09;;;;;;;3.30;1.05;;;;;;;;;;10424581;28;20230;-64
2022/10/03 08:21:15;;;;;;;7.03;1.20;;;;;;;;;;10415718;28;20206;-66
2022/10/03 08:26:17;;;;;;;2.88;0.77;;;;;;;;;;10451069;28;20230;-65
2022/10/03 08:31:27;;;;;;;4.78;0.80;;;;;;;;;;10419587;28;20318;-65
2022/10/03 08:36:46;;;;;;;4.03;1.13;;;;;;;;;;10416510;28;21157;-66
2022/10/03 08:42:15;;;;;;;5.22;1.15;;;;;;;;;;10416614;28;20219;-66
2022/10/03 08:47:35;;;;;;;7.90;1.00;;;;;;;;;;10413331;28;20690;-68
2022/10/03 08:52:48;;;;;;;5.78;0.80;;;;;;;;;;10407207;28;20344;-66
2022/10/03 08:58:17;;;;;;;2.78;0.80;;;;;;;;;;10429732;28;20215;-67
2022/10/03 09:03:27;;;;;;;7.75;0.95;;;;;;;;;;10395221;28;20689;-66
2022/10/03 09:08:46;;;;;;;5.88;0.50;;;;;;;;;;10412991;28;20214;-66
2022/10/03 09:14:02;;;;;;;2.60;0.50;;;;;;;;;;10419838;28;20226;-68
2022/10/03 09:19:04;;;;;;;3.33;0.82;;;;;;;;;;10417493;28;20211;-67
2022/10/03 09:24:17;;;;;;;2.75;0.50;;;;;;;;;;10418670;28;20244;-66
2022/10/03 09:29:18;;;;;;;4.30;0.95;;;;;;;;;;10416623;28;20231;-67
2022/10/03 09:34:35;;;;;;;3.17;0.50;;;;;;;;;;10417083;28;20269;-67
2022/10/03 09:39:46;;;;;;;2.67;0.60;;;;;;;;;;10412923;28;20222;-67
2022/10/03 09:44:53;;;;;;;6.28;0.55;;;;;;;;;;10400454;28;20962;-66
2022/10/03 09:50:18;;;;;;;8.35;0.55;;;;;;;;;;10410210;28;20284;-67
2022/10/03 09:55:19;;;;;;;5.10;0.38;;;;;;;;;;10404083;28;20225;-67
2022/10/03 10:00:22;;;;;;;5.22;0.93;;;;;;;;;;10407547;28;20784;-67
2022/10/03 10:05:42;;;;;;;4.38;0.65;;;;;;;;;;10449569;28;20213;-66
2022/10/03 10:10:52;;;;;;;4.82;0.70;;;;;;;;;;10447964;28;20328;-67
2022/10/03 10:15:53;;;;;;;3.72;0.45;;;;;;;;;;10388066;28;20261;-67
2022/10/03 10:20:54;;;;;;;1.70;0.45;;;;;;;;;;10383993;28;20288;-67
2022/10/03 10:26:08;;;;;;;4.15;0.55;;;;;;;;;;10386382;28;20221;-67
2022/10/03 10:31:28;;;;;;;4.97;0.70;;;;;;;;;;10389607;28;20220;-66
2022/10/03 10:36:49;;;;;;;3.05;0.40;;;;;;;;;;10387419;28;20213;-66
2022/10/03 10:42:04;;;;;;;1.00;0.60;;;;;;;;;;10381595;28;20222;-66
2022/10/03 10:47:26;;;;;;;3.70;0.38;;;;;;;;;;10384181;28;20216;-66
2022/10/03 10:52:33;;;;;;;0.90;0.40;;;;;;;;;;10389799;28;20215;-67
2022/10/03 10:58:00;;;;;;;0.82;0.35;;;;;;;;;;10384127;28;20301;-66
2022/10/03 11:03:21;;;;;;;2.00;0.30;;;;;;;;;;10349174;28;20216;-66
2022/10/03 11:08:28;;;;;;;5.72;0.38;;;;;;;;;;10384651;28;20226;-66
2022/10/03 11:13:29;;;;;;;0.38;0.30;;;;;;;;;;10420040;28;20223;-66
2022/10/03 11:18:49;;;;;;;4.25;0.30;;;;;;;;;;10450700;28;20202;-67
2022/10/03 11:24:03;;;;;;;4.75;0.52;;;;;;;;;;10435980;28;20220;-67
2022/10/03 11:29:25;;;;;;;3.10;0.40;;;;;;;;;;10454120;28;20241;-66
2022/10/03 11:34:38;;;;;;;1.95;0.55;;;;;;;;;;10442387;28;20222;-66
2022/10/03 11:39:58;;;;;;;6.13;0.65;;;;;;;;;;10451229;28;20297;-66
2022/10/03 11:45:04;;;;;;;0.38;0.20;;;;;;;;;;10454356;28;20305;-66
2022/10/03 11:50:26;;;;;;;1.40;0.60;;;;;;;;;;10453249;28;20299;-66
2022/10/03 11:55:35;;;;;;;2.10;0.28;;;;;;;;;;10454372;28;20247;-66
2022/10/03 12:00:36;;;;;;;3.17;0.35;;;;;;;;;;10451153;28;20819;-65
2022/10/03 13:01:56;;;;;;;1.85;0.40;;;;;;;;;;10439888;27;20211;-66
2022/10/03 13:06:59;;;;;;;1.08;0.20;;;;;;;;;;10383709;28;20931;-67
2022/10/03 13:12:08;;;;;;;1.80;0.30;;;;;;;;;;10387968;28;20251;-66
2022/10/03 13:17:19;;;;;;;0.40;0.40;;;;;;;;;;10382190;28;20310;-66
2022/10/03 13:22:36;;;;;;;1.23;0.22;;;;;;;;;;10389440;28;20737;-67
2022/10/03 13:27:42;;;;;;;0.30;0.25;;;;;;;;;;10369710;28;20298;-67
2022/10/03 13:32:46;;;;;;;3.72;0.30;;;;;;;;;;10387993;28;20234;-66
2022/10/03 13:37:56;;;;;;;3.95;0.30;;;;;;;;;;10391014;28;20215;-67
2022/10/03 13:43:00;;;;;;;1.42;0.32;;;;;;;;;;10389070;28;20730;-67
2022/10/03 13:48:06;;;;;;;2.05;0.20;;;;;;;;;;10390763;28;20408;-67
2022/10/03 13:53:18;;;;;;;2.38;0.40;;;;;;;;;;10387486;28;20607;-66
2022/10/03 13:58:30;;;;;;;0.52;0.20;;;;;;;;;;10390044;28;20750;-66
2022/10/03 14:03:52;;;;;;;4.05;0.20;;;;;;;;;;10365979;28;20880;-66
2022/10/03 14:09:09;;;;;;;0.93;0.30;;;;;;;;;;10388524;28;20218;-66
2022/10/03 14:14:34;;;;;;;4.22;0.50;;;;;;;;;;10389528;28;20658;-67
2022/10/03 14:19:54;;;;;;;0.85;0.40;;;;;;;;;;10386475;28;20219;-67
2022/10/03 14:25:04;;;;;;;1.42;0.30;;;;;;;;;;10366834;28;20331;-67
2022/10/03 14:30:34;;;;;;;2.03;0.28;;;;;;;;;;10385897;28;20776;-67
2022/10/03 14:35:37;;;;;;;1.90;0.47;;;;;;;;;;10331651;28;20269;-67
2022/10/03 14:40:44;;;;;;;1.85;0.50;;;;;;;;;;10389466;28;20702;-67
2022/10/03 14:45:52;;;;;;;2.60;0.63;;;;;;;;;;10387254;28;20223;-67
2022/10/03 14:51:01;;;;;;;2.20;0.30;;;;;;;;;;10390734;28;20226;-68
2022/10/03 14:56:08;;;;;;;0.65;0.30;;;;;;;;;;10388771;28;20230;-68
2022/10/03 15:01:14;;;;;;;0.60;0.20;;;;;;;;;;10384857;28;20219;-66
2022/10/03 15:06:20;;;;;;;0.25;0.22;;;;;;;;;;10385468;28;20228;-67
2022/10/03 15:11:25;;;;;;;2.13;0.30;;;;;;;;;;10385629;28;20255;-67
2022/10/03 15:16:26;;;;;;;0.20;0.20;;;;;;;;;;10380348;28;20226;-68
2022/10/03 15:21:28;;;;;;;0.73;0.30;;;;;;;;;;10381015;28;20722;-69
2022/10/03 15:26:33;;;;;;;4.53;0.60;;;;;;;;;;10382285;28;20337;-68
2022/10/03 15:31:37;;;;;;;0.47;0.40;;;;;;;;;;10385753;28;20378;-68
2022/10/03 15:36:40;;;;;;;2.85;0.30;;;;;;;;;;10388780;28;20213;-68
2022/10/03 15:41:59;;;;;;;0.38;0.20;;;;;;;;;;10387893;28;20679;-67
2022/10/03 15:47:04;;;;;;;0.40;0.40;;;;;;;;;;10384517;28;20215;-67
2022/10/03 15:52:26;;;;;;;1.65;0.60;;;;;;;;;;10364949;28;20232;-66
2022/10/03 15:57:38;;;;;;;2.70;0.60;;;;;;;;;;10381576;28;20891;-66
2022/10/03 16:02:51;;;;;;;0.22;0.20;;;;;;;;;;10384843;28;20238;-67
2022/10/03 16:08:04;;;;;;;3.95;0.30;;;;;;;;;;10384241;28;20773;-67
2022/10/03 16:13:24;;;;;;;1.08;0.40;;;;;;;;;;10383115;28;20246;-67
2022/10/03 16:18:40;;;;;;;1.63;0.82;;;;;;;;;;10392313;28;20211;-67
2022/10/03 16:23:44;;;;;;;1.20;0.60;;;;;;;;;;10366406;28;20246;-68
2022/10/03 16:29:00;;;;;;;0.20;0.20;;;;;;;;;;10391722;28;20273;-68
2022/10/03 16:34:15;;;;;;;0.35;0.28;;;;;;;;;;10382975;28;20242;-67
2022/10/03 16:39:22;;;;;;;0.30;0.30;;;;;;;;;;10384633;28;20683;-68
2022/10/03 16:44:44;;;;;;;1.05;0.47;;;;;;;;;;10382535;28;20733;-69
2022/10/03 16:55:18;;;;;;;2.83;0.30;;;;;;;;;;10380859;28;20226;-67
2022/10/03 17:00:26;;;;;;;1.95;0.93;;;;;;;;;;10383672;28;20227;-69
2022/10/03 17:05:27;;;;;;;2.53;0.52;;;;;;;;;;10355761;28;20591;-69
2022/10/03 17:10:31;;;;;;;2.97;0.40;;;;;;;;;;10343877;28;20279;-69
2022/10/03 17:15:34;;;;;;;2.83;0.43;;;;;;;;;;10321115;28;20832;-69
2022/10/03 17:20:39;;;;;;;1.48;0.40;;;;;;;;;;10341618;28;20984;-68
2022/10/03 17:25:47;;;;;;;0.38;0.30;;;;;;;;;;10342320;28;22255;-69
2022/10/03 17:30:51;;;;;;;0.65;0.47;;;;;;;;;;10345764;28;20291;-68
2022/10/03 17:36:01;;;;;;;2.65;0.60;;;;;;;;;;10338020;28;20232;-66
2022/10/03 17:41:02;;;;;;;0.57;0.57;;;;;;;;;;10343427;28;21046;-68
2022/10/03 17:46:14;;;;;;;0.45;0.45;;;;;;;;;;10343171;28;20719;-68
2022/10/03 17:51:50;;;;;;;3.47;0.35;;;;;;;;;;10344275;28;20220;-69
2022/10/03 17:56:53;;;;;;;2.05;0.30;;;;;;;;;;10274820;28;20306;-70
2022/10/03 18:01:56;;;;;;;2.60;0.60;;;;;;;;;;10322114;28;20219;-68
2022/10/03 18:07:01;;;;;;;1.52;0.32;;;;;;;;;;10381161;28;20870;-67
2022/10/03 18:12:10;;;;;;;3.03;0.68;;;;;;;;;;10388231;28;20226;-67
2022/10/03 18:17:18;;;;;;;4.18;0.70;;;;;;;;;;10386815;28;20219;-66
2022/10/03 18:22:23;;;;;;;3.63;0.30;;;;;;;;;;10364224;28;20219;-68
2022/10/03 18:27:42;;;;;;;0.52;0.20;;;;;;;;;;10389852;28;20225;-69
2022/10/03 18:32:44;;;;;;;0.30;0.30;;;;;;;;;;10390370;28;20219;-68
2022/10/03 18:37:45;;;;;;;4.50;0.40;;;;;;;;;;10388681;28;20210;-69
2022/10/03 18:42:50;;;;;;;2.55;0.57;;;;;;;;;;10370787;28;20215;-68
2022/10/03 18:47:54;;;;;;;2.00;0.30;;;;;;;;;;10387480;28;20215;-68
2022/10/03 18:53:04;;;;;;;0.70;0.40;;;;;;;;;;10382983;28;20234;-69
2022/10/03 18:58:13;;;;;;;0.40;0.40;;;;;;;;;;10383591;28;20707;-68
2022/10/03 19:52:43;;;;;;;0.55;0.40;;;;;;;;;;10366163;28;21145;-69
2022/10/03 19:57:55;;;;;;;0.88;0.38;;;;;;;;;;10376340;28;20302;-66
2022/10/03 20:03:20;;;;;;;1.10;0.47;;;;;;;;;;10373086;28;20211;-68
2022/10/03 20:08:22;;;;;;;1.45;0.38;;;;;;;;;;10375477;28;20219;-66
2022/10/03 20:13:23;;;;;;;10.32;0.60;;;;;;;;;;10370356;28;20227;-68
2022/10/03 20:18:26;;;;;;;0.50;0.40;;;;;;;;;;10372109;28;20221;-68
2022/10/03 20:23:29;;;;;;;0.82;0.22;;;;;;;;;;10353186;28;20216;-67
2022/10/03 20:28:48;;;;;;;0.93;0.30;;;;;;;;;;10367217;28;20223;-66
2022/10/03 20:33:50;;;;;;;0.32;0.30;;;;;;;;;;10368537;28;20369;-66
2022/10/03 20:38:51;;;;;;;1.85;0.40;;;;;;;;;;10365342;28;20702;-65
2022/10/03 20:43:52;;;;;;;1.20;0.32;;;;;;;;;;10371080;28;20564;-68
2022/10/03 20:49:06;;;;;;;1.42;0.25;;;;;;;;;;10355368;28;20707;-68
2022/10/03 20:54:12;;;;;;;1.95;0.47;;;;;;;;;;10380607;28;20243;-63
2022/10/03 20:59:14;;;;;;;2.25;0.22;;;;;;;;;;10370724;28;20216;-66
2022/10/03 21:04:16;;;;;;;1.35;0.25;;;;;;;;;;10375544;28;21159;-66
2022/10/03 21:09:23;;;;;;;0.40;0.40;;;;;;;;;;10371964;28;20220;-66
2022/10/03 21:14:27;;;;;;;0.88;0.20;;;;;;;;;;10365297;28;20228;-68
2022/10/03 21:19:31;;;;;;;2.75;0.22;;;;;;;;;;10374314;28;20717;-66
2022/10/03 21:24:32;;;;;;;2.88;0.25;;;;;;;;;;10362117;28;20227;-66
2022/10/03 21:29:34;;;;;;;4.78;0.40;;;;;;;;;;10369440;28;20220;-66
2022/10/03 21:34:45;;;;;;;2.70;0.28;;;;;;;;;;10361463;28;20707;-66
2022/10/03 21:40:09;;;;;;;3.20;0.40;;;;;;;;;;10371032;28;20223;-66
2022/10/03 21:45:38;;;;;;;0.52;0.50;;;;;;;;;;10345079;28;20232;-66
2022/10/03 21:50:42;;;;;;;1.40;0.40;;;;;;;;;;10392443;28;20812;-66
2022/10/03 21:55:43;;;;;;;0.30;0.30;;;;;;;;;;10390518;28;20689;-66
2022/10/03 22:01:04;;;;;;;0.93;0.45;;;;;;;;;;10409376;28;20245;-66
2022/10/03 22:06:06;;;;;;;0.80;0.20;;;;;;;;;;10409296;28;21153;-66
2022/10/03 22:11:24;;;;;;;4.85;0.50;;;;;;;;;;10407353;28;20234;-66
2022/10/03 22:16:38;;;;;;;2.20;0.40;;;;;;;;;;10394780;28;20230;-66
2022/10/03 22:21:59;;;;;;;1.15;0.52;;;;;;;;;;10416047;28;20237;-66
2022/10/03 22:27:11;;;;;;;0.52;0.30;;;;;;;;;;10414712;28;20302;-66
2022/10/03 22:32:22;;;;;;;3.85;0.45;;;;;;;;;;10412022;28;20644;-68
2022/10/03 22:37:23;;;;;;;3.95;0.30;;;;;;;;;;10412563;28;20223;-66
2022/10/03 22:42:25;;;;;;;1.25;0.30;;;;;;;;;;10405742;28;20308;-66
2022/10/03 22:47:30;;;;;;;1.27;0.40;;;;;;;;;;10414084;28;20257;-65
2022/10/03 22:52:34;;;;;;;2.58;0.35;;;;;;;;;;10373742;28;20232;-67
2022/10/03 22:57:36;;;;;;;0.43;0.20;;;;;;;;;;10368760;28;20216;-68
2022/10/03 23:02:43;;;;;;;0.80;0.30;;;;;;;;;;10375476;28;20675;-68
2022/10/03 23:07:44;;;;;;;1.00;0.40;;;;;;;;;;10372910;28;20496;-67
2022/10/03 23:12:51;;;;;;;2.30;0.50;;;;;;;;;;10378762;28;20227;-68
2022/10/03 23:17:52;;;;;;;0.75;0.30;;;;;;;;;;10371134;28;20220;-66
2022/10/03 23:22:56;;;;;;;1.65;0.30;;;;;;;;;;10371652;28;21544;-68
2022/10/03 23:27:57;;;;;;;0.57;0.57;;;;;;;;;;10369773;28;20222;-66
2022/10/03 23:32:59;;;;;;;3.83;0.20;;;;;;;;;;10375798;28;20691;-65
2022/10/03 23:38:00;;;;;;;0.73;0.50;;;;;;;;;;10376481;28;20212;-65
2022/10/03 23:43:18;;;;;;;0.45;0.40;;;;;;;;;;10370457;28;20223;-65
2022/10/03 23:48:22;;;;;;;1.08;0.40;;;;;;;;;;10376905;28;20695;-68
2022/10/03 23:53:29;;;;;;;2.17;0.47;;;;;;;;;;10378410;28;20235;-66
2022/10/03 23:58:32;;;;;;;2.67;0.50;;;;;;;;;;10367239;28;20722;-68
